Time;durP1;ratioP1;P1;durP2;ratioP2;P2;SDS_P1;SDS_P2;PMS_P1;PMS_P2;Temp;Humidity;BMP_temperature;BMP_pressure;BME280_temperature;BME280_humidity;BME280_pressure;Samples;Min_cycle;Max_cycle;Signal;HPM_P1;HPM_P2
2022/03/19 06:55:13;;;;;;;59.13;30.23;;;;;;;;;;5072561;23;20010;-60
2022/03/19 06:57:39;;;;;;;65.35;31.92;;;;;;;;;;4935845;29;20050;-60
2022/03/19 07:00:06;;;;;;;79.95;39.58;;;;;;;;;;4936100;29;20443;-61
2022/03/19 07:02:32;;;;;;;91.60;43.70;;;;;;;;;;4935274;29;20491;-61
2022/03/19 07:04:58;;;;;;;89.18;42.88;;;;;;;;;;4935916;29;20032;-60
2022/03/19 07:07:24;;;;;;;92.15;42.03;;;;;;;;;;4935753;29;20031;-63
2022/03/19 07:09:51;;;;;;;100.00;43.95;;;;;;;;;;4935963;29;20091;-61
2022/03/19 07:12:17;;;;;;;94.43;44.85;;;;;;;;;;4935779;29;20036;-62
2022/03/19 07:14:44;;;;;;;94.05;45.83;;;;;;;;;;4924427;29;20039;-61
2022/03/19 07:17:10;;;;;;;88.40;42.90;;;;;;;;;;4930521;29;20115;-62
2022/03/19 07:19:36;;;;;;;74.93;38.00;;;;;;;;;;4920106;29;20040;-62
2022/03/19 07:22:02;;;;;;;80.15;39.95;;;;;;;;;;4924427;29;20032;-63
2022/03/19 07:24:28;;;;;;;83.32;40.72;;;;;;;;;;4925589;29;20024;-62
2022/03/19 07:26:54;;;;;;;84.63;43.47;;;;;;;;;;4926283;29;20135;-62
2022/03/19 07:29:20;;;;;;;82.95;42.53;;;;;;;;;;4930649;29;20036;-61
2022/03/19 07:31:46;;;;;;;85.43;40.45;;;;;;;;;;4925330;29;20106;-62
2022/03/19 07:34:13;;;;;;;74.90;38.40;;;;;;;;;;4926044;29;20028;-63
2022/03/19 07:36:39;;;;;;;66.18;34.22;;;;;;;;;;4924634;29;20028;-62
2022/03/19 07:39:05;;;;;;;60.17;31.60;;;;;;;;;;4924425;29;20039;-63
2022/03/19 07:41:48;;;;;;;58.78;30.88;;;;;;;;;;4929190;29;20020;-62
2022/03/19 07:44:15;;;;;;;56.50;28.23;;;;;;;;;;4932833;29;20032;-63
2022/03/19 07:46:44;;;;;;;46.20;23.83;;;;;;;;;;4925871;29;20036;-63
2022/03/19 07:49:11;;;;;;;46.83;23.15;;;;;;;;;;4923333;29;20472;-63
2022/03/19 07:51:38;;;;;;;45.55;21.65;;;;;;;;;;4917842;29;20028;-64
2022/03/19 07:54:04;;;;;;;42.33;22.02;;;;;;;;;;4912177;29;20647;-63
2022/03/19 07:56:30;;;;;;;38.38;21.50;;;;;;;;;;4899500;29;20039;-62
2022/03/19 07:58:56;;;;;;;37.92;21.42;;;;;;;;;;4905995;29;20057;-62
2022/03/19 08:01:22;;;;;;;43.08;22.73;;;;;;;;;;4904734;29;20029;-63
2022/03/19 08:03:48;;;;;;;42.97;22.08;;;;;;;;;;4906363;29;20020;-63
2022/03/19 08:06:14;;;;;;;46.33;21.98;;;;;;;;;;4905634;29;20570;-62
2022/03/19 08:08:41;;;;;;;39.88;21.90;;;;;;;;;;4902364;29;20028;-63
2022/03/19 08:11:07;;;;;;;45.60;24.83;;;;;;;;;;4904694;29;20123;-63
2022/03/19 08:13:33;;;;;;;45.28;23.60;;;;;;;;;;4907858;29;20048;-63
2022/03/19 08:15:59;;;;;;;46.38;24.70;;;;;;;;;;4900853;29;20032;-62
2022/03/19 08:18:25;;;;;;;71.43;36.05;;;;;;;;;;4898857;29;20040;-62
2022/03/19 08:20:52;;;;;;;95.80;43.88;;;;;;;;;;4914618;29;20103;-62
2022/03/19 08:23:22;;;;;;;41.47;23.15;;;;;;;;;;4909272;29;20056;-62
2022/03/19 08:25:48;;;;;;;41.97;20.60;;;;;;;;;;4912721;29;20056;-62
2022/03/19 08:28:14;;;;;;;32.83;18.00;;;;;;;;;;4909819;29;20042;-63
2022/03/19 08:30:40;;;;;;;32.28;17.90;;;;;;;;;;4915352;29;20103;-63
2022/03/19 08:33:06;;;;;;;30.13;17.33;;;;;;;;;;4909650;29;20043;-62
2022/03/19 08:35:32;;;;;;;32.33;18.35;;;;;;;;;;4904339;29;20099;-62
2022/03/19 08:40:43;;;;;;;36.25;19.05;;;;;;;;;;4896760;29;20065;-62
2022/03/19 08:43:09;;;;;;;32.13;17.80;;;;;;;;;;4896105;29;20422;-62
2022/03/19 08:45:35;;;;;;;34.90;19.20;;;;;;;;;;4896321;29;20028;-62
2022/03/19 08:48:01;;;;;;;28.23;16.58;;;;;;;;;;4900646;29;20480;-63
2022/03/19 08:50:28;;;;;;;31.80;15.95;;;;;;;;;;4904155;29;20028;-63
2022/03/19 08:52:54;;;;;;;30.88;15.70;;;;;;;;;;4909587;29;20135;-62
2022/03/19 08:55:20;;;;;;;29.98;15.73;;;;;;;;;;4914832;29;20119;-62
2022/03/19 08:57:47;;;;;;;26.63;14.75;;;;;;;;;;4913153;29;20091;-63
2022/03/19 09:00:13;;;;;;;24.80;14.27;;;;;;;;;;4905648;29;20336;-63
2022/03/19 09:02:39;;;;;;;33.55;16.15;;;;;;;;;;4900895;29;20097;-63
2022/03/19 09:05:06;;;;;;;30.80;16.73;;;;;;;;;;4900657;29;20040;-62
2022/03/19 09:07:32;;;;;;;31.63;17.27;;;;;;;;;;4905809;29;20032;-63
2022/03/19 09:09:58;;;;;;;27.23;15.40;;;;;;;;;;4904759;29;20093;-62
2022/03/19 09:12:25;;;;;;;28.52;15.30;;;;;;;;;;4903740;29;20035;-62
2022/03/19 09:14:51;;;;;;;28.25;15.50;;;;;;;;;;4905460;29;20055;-62
2022/03/19 09:17:17;;;;;;;27.70;15.57;;;;;;;;;;4904422;29;20033;-63
2022/03/19 09:19:43;;;;;;;27.10;14.68;;;;;;;;;;4903456;29;20028;-63
2022/03/19 09:22:10;;;;;;;29.08;15.80;;;;;;;;;;4905499;29;20025;-62
2022/03/19 09:24:36;;;;;;;25.85;15.18;;;;;;;;;;4903057;29;20032;-62
2022/03/19 09:27:02;;;;;;;27.75;15.27;;;;;;;;;;4903814;29;20072;-62
2022/03/19 09:29:28;;;;;;;31.60;16.55;;;;;;;;;;4903847;29;20020;-62
2022/03/19 09:31:54;;;;;;;30.85;16.90;;;;;;;;;;4905204;29;20027;-62
2022/03/19 09:34:20;;;;;;;29.05;17.13;;;;;;;;;;4902970;29;20075;-62
2022/03/19 09:36:46;;;;;;;32.60;16.15;;;;;;;;;;4903972;29;20060;-63
2022/03/19 09:39:14;;;;;;;29.70;16.63;;;;;;;;;;4905306;29;20112;-62
2022/03/19 09:41:42;;;;;;;30.65;17.45;;;;;;;;;;4902053;29;20147;-62
2022/03/19 09:44:08;;;;;;;31.85;16.75;;;;;;;;;;4903931;29;20020;-62
2022/03/19 09:46:35;;;;;;;27.15;16.08;;;;;;;;;;4907174;29;20028;-62
2022/03/19 09:49:01;;;;;;;32.78;17.92;;;;;;;;;;4907388;29;20072;-62
2022/03/19 09:51:27;;;;;;;32.55;16.90;;;;;;;;;;4908002;29;20027;-62
2022/03/19 09:53:55;;;;;;;27.13;15.73;;;;;;;;;;4909543;29;20020;-62
2022/03/19 09:56:21;;;;;;;28.45;16.77;;;;;;;;;;4908687;29;20047;-62
2022/03/19 09:58:48;;;;;;;30.00;16.20;;;;;;;;;;4907077;29;20493;-62
2022/03/19 10:01:18;;;;;;;28.45;16.05;;;;;;;;;;4907915;29;20103;-62
2022/03/19 10:03:45;;;;;;;25.05;14.88;;;;;;;;;;4908809;29;20032;-62
2022/03/19 10:08:57;;;;;;;28.50;16.45;;;;;;;;;;4906825;29;20102;-62
2022/03/19 10:11:25;;;;;;;26.15;16.13;;;;;;;;;;4908760;29;20032;-62
2022/03/19 10:13:52;;;;;;;33.00;16.98;;;;;;;;;;4906443;29;20043;-62
2022/03/19 10:16:24;;;;;;;28.42;17.95;;;;;;;;;;4908229;29;20020;-63
2022/03/19 10:19:01;;;;;;;26.00;14.73;;;;;;;;;;4907994;29;20149;-62
2022/03/19 10:21:27;;;;;;;28.40;16.38;;;;;;;;;;4907490;29;20035;-62
2022/03/19 10:23:55;;;;;;;27.95;15.82;;;;;;;;;;4906403;29;20533;-62
2022/03/19 10:26:35;;;;;;;25.42;13.95;;;;;;;;;;4906496;29;20076;-62
2022/03/19 10:29:05;;;;;;;25.88;14.90;;;;;;;;;;4906955;29;20040;-62
2022/03/19 10:31:34;;;;;;;33.20;18.65;;;;;;;;;;4906173;29;20024;-62
2022/03/19 10:34:00;;;;;;;25.00;13.05;;;;;;;;;;4906397;29;20104;-62
2022/03/19 10:36:31;;;;;;;19.73;12.38;;;;;;;;;;4907361;29;20020;-62
2022/03/19 10:38:57;;;;;;;23.38;13.55;;;;;;;;;;4907853;29;20024;-62
2022/03/19 10:41:23;;;;;;;21.50;12.25;;;;;;;;;;4906406;29;20016;-62
2022/03/19 10:43:49;;;;;;;20.88;12.00;;;;;;;;;;4906426;29;20024;-62
2022/03/19 10:46:18;;;;;;;21.95;12.25;;;;;;;;;;4908219;29;20024;-62
2022/03/19 10:48:49;;;;;;;23.13;13.13;;;;;;;;;;4906644;29;20037;-62
2022/03/19 10:51:17;;;;;;;19.70;10.98;;;;;;;;;;4906162;29;20464;-62
2022/03/19 10:53:43;;;;;;;19.67;11.18;;;;;;;;;;4907150;29;20044;-62
2022/03/19 10:56:11;;;;;;;23.40;12.18;;;;;;;;;;4906127;29;20107;-62
2022/03/19 10:58:37;;;;;;;17.33;9.77;;;;;;;;;;4905929;29;20151;-62
2022/03/19 11:01:03;;;;;;;32.80;18.90;;;;;;;;;;4907154;29;20047;-62
2022/03/19 11:03:30;;;;;;;18.15;10.23;;;;;;;;;;4906106;29;20028;-64
2022/03/19 11:06:02;;;;;;;16.70;9.73;;;;;;;;;;4907286;29;20032;-62
2022/03/19 11:08:28;;;;;;;;;;;;;;;;;;4908079;29;20032;-62
2022/03/19 11:10:57;;;;;;;13.63;7.65;;;;;;;;;;4905711;29;19912;-62
2022/03/19 11:13:25;;;;;;;12.02;7.57;;;;;;;;;;4906350;29;20043;-62
2022/03/19 11:15:53;;;;;;;13.73;7.43;;;;;;;;;;4907582;29;20484;-62
2022/03/19 11:18:23;;;;;;;13.90;7.50;;;;;;;;;;4906261;29;20469;-62
2022/03/19 11:20:50;;;;;;;13.52;7.32;;;;;;;;;;4905604;29;20026;-62
2022/03/19 11:23:19;;;;;;;13.32;6.80;;;;;;;;;;4907176;29;20043;-62
2022/03/19 11:25:48;;;;;;;14.23;7.70;;;;;;;;;;4906616;29;20036;-62
2022/03/19 11:28:14;;;;;;;13.00;7.50;;;;;;;;;;4905447;29;20442;-62
2022/03/19 11:30:42;;;;;;;13.43;7.47;;;;;;;;;;4906360;29;20036;-62
2022/03/19 11:33:22;;;;;;;12.80;7.68;;;;;;;;;;4906983;29;20084;-62
2022/03/19 11:35:50;;;;;;;14.93;7.93;;;;;;;;;;4906783;29;20518;-62
2022/03/19 11:38:18;;;;;;;16.27;8.55;;;;;;;;;;4905178;29;20045;-62
2022/03/19 11:40:53;;;;;;;14.18;7.90;;;;;;;;;;4905946;29;20469;-62
2022/03/19 11:43:32;;;;;;;16.65;8.93;;;;;;;;;;4905579;29;20052;-62
2022/03/19 11:46:03;;;;;;;17.58;8.65;;;;;;;;;;4904956;29;20048;-62
2022/03/19 11:48:47;;;;;;;21.48;10.85;;;;;;;;;;4905249;29;20473;-62
2022/03/19 11:51:28;;;;;;;21.05;8.95;;;;;;;;;;4906846;29;20025;-62
2022/03/19 11:54:09;;;;;;;13.07;7.87;;;;;;;;;;4904713;29;20102;-62
2022/03/19 11:56:42;;;;;;;14.00;7.28;;;;;;;;;;4904991;29;20029;-62
2022/03/19 11:59:14;;;;;;;12.82;7.50;;;;;;;;;;4905070;29;21021;-62
2022/03/19 12:01:46;;;;;;;23.67;9.93;;;;;;;;;;4905360;29;20119;-62
2022/03/19 12:04:12;;;;;;;15.35;8.32;;;;;;;;;;4904253;29;20068;-62
2022/03/19 12:06:40;;;;;;;15.43;8.27;;;;;;;;;;4906320;29;20024;-62
2022/03/19 12:09:07;;;;;;;15.32;9.00;;;;;;;;;;4905581;29;20031;-61
2022/03/19 12:11:35;;;;;;;13.63;7.95;;;;;;;;;;4904093;29;20024;-61
2022/03/19 12:14:08;;;;;;;16.77;8.63;;;;;;;;;;4906229;29;20473;-61
2022/03/19 12:16:41;;;;;;;18.58;10.02;;;;;;;;;;4905298;29;20025;-61
2022/03/19 12:19:08;;;;;;;19.38;8.82;;;;;;;;;;4904217;29;20073;-62
2022/03/19 12:21:38;;;;;;;14.35;8.63;;;;;;;;;;4905401;29;20020;-61
2022/03/19 12:24:11;;;;;;;18.25;9.00;;;;;;;;;;4906048;29;20020;-61
2022/03/19 12:26:42;;;;;;;22.67;9.70;;;;;;;;;;4905617;29;20138;-61
2022/03/19 12:29:09;;;;;;;16.98;9.18;;;;;;;;;;4904741;29;20107;-61
2022/03/19 12:31:36;;;;;;;15.60;8.15;;;;;;;;;;4905365;29;20070;-61
2022/03/19 12:34:03;;;;;;;14.43;8.65;;;;;;;;;;4906123;29;20036;-63
2022/03/19 12:36:29;;;;;;;13.20;7.40;;;;;;;;;;4904706;29;20033;-63
2022/03/19 12:39:00;;;;;;;16.17;8.85;;;;;;;;;;4905296;29;20028;-62
2022/03/19 12:41:27;;;;;;;17.13;9.43;;;;;;;;;;4906014;29;20110;-63
2022/03/19 12:43:56;;;;;;;15.07;9.02;;;;;;;;;;4904282;29;20033;-63
2022/03/19 12:46:30;;;;;;;15.80;8.55;;;;;;;;;;4904311;29;20020;-62
2022/03/19 12:49:06;;;;;;;14.88;8.50;;;;;;;;;;4904676;29;20064;-62
2022/03/19 12:51:32;;;;;;;15.30;8.45;;;;;;;;;;4903993;29;20028;-63
2022/03/19 12:53:59;;;;;;;14.07;8.23;;;;;;;;;;4904230;29;20024;-63
2022/03/19 12:56:26;;;;;;;15.23;8.77;;;;;;;;;;4905285;29;20042;-61
2022/03/19 12:58:54;;;;;;;15.50;8.35;;;;;;;;;;4903928;29;20485;-63
2022/03/19 13:01:24;;;;;;;15.93;8.60;;;;;;;;;;4904350;29;20048;-63
2022/03/19 13:03:54;;;;;;;18.65;8.85;;;;;;;;;;4905586;29;20036;-61
2022/03/19 13:06:36;;;;;;;14.38;8.35;;;;;;;;;;4905157;29;20471;-63
2022/03/19 13:09:07;;;;;;;16.95;7.75;;;;;;;;;;4905424;29;20087;-63
2022/03/19 13:11:43;;;;;;;13.32;8.25;;;;;;;;;;4904581;29;20020;-63
2022/03/19 13:14:12;;;;;;;13.88;8.18;;;;;;;;;;4903666;29;20500;-62
2022/03/19 13:16:39;;;;;;;13.15;8.43;;;;;;;;;;4904346;29;20036;-63
2022/03/19 13:19:05;;;;;;;16.45;8.13;;;;;;;;;;4905447;29;20054;-62
2022/03/19 13:21:33;;;;;;;16.45;7.90;;;;;;;;;;4910382;29;20109;-62
2022/03/19 13:23:59;;;;;;;15.13;8.45;;;;;;;;;;4910702;29;20024;-63
2022/03/19 13:26:33;;;;;;;20.20;8.35;;;;;;;;;;4912053;29;20036;-62
2022/03/19 13:29:00;;;;;;;15.27;8.90;;;;;;;;;;4911509;29;20025;-62
2022/03/19 13:31:26;;;;;;;17.52;9.57;;;;;;;;;;4909735;29;20107;-63
2022/03/19 13:33:52;;;;;;;13.00;7.38;;;;;;;;;;4911156;29;20112;-63
2022/03/19 13:36:19;;;;;;;15.15;8.45;;;;;;;;;;4911027;29;20145;-62
2022/03/19 13:38:45;;;;;;;18.77;10.52;;;;;;;;;;4909459;29;20052;-63
2022/03/19 13:41:18;;;;;;;13.98;7.97;;;;;;;;;;4911550;29;20075;-63
2022/03/19 13:43:44;;;;;;;13.65;7.72;;;;;;;;;;4911316;29;20036;-62
2022/03/19 13:46:11;;;;;;;19.98;11.88;;;;;;;;;;4909743;29;20024;-62
2022/03/19 13:48:37;;;;;;;13.38;7.93;;;;;;;;;;4910609;29;20130;-62
2022/03/19 13:51:03;;;;;;;14.23;7.93;;;;;;;;;;4911548;29;20013;-63
2022/03/19 13:53:43;;;;;;;12.20;7.07;;;;;;;;;;4910500;29;20409;-62
2022/03/19 13:56:10;;;;;;;12.48;7.18;;;;;;;;;;4909529;29;20048;-62
2022/03/19 13:58:37;;;;;;;15.80;7.90;;;;;;;;;;4910914;29;20036;-62
2022/03/19 14:01:15;;;;;;;13.48;7.25;;;;;;;;;;4911385;29;20036;-62
2022/03/19 14:03:41;;;;;;;15.27;9.40;;;;;;;;;;4911115;29;20937;-62
2022/03/19 14:06:08;;;;;;;13.52;7.38;;;;;;;;;;4909444;29;20040;-62
2022/03/19 14:08:36;;;;;;;14.40;8.43;;;;;;;;;;4911041;29;20385;-63
2022/03/19 14:11:10;;;;;;;13.80;7.63;;;;;;;;;;4910491;29;20089;-63
2022/03/19 14:13:44;;;;;;;14.52;8.02;;;;;;;;;;4909578;29;20076;-62
2022/03/19 14:16:14;;;;;;;14.30;8.00;;;;;;;;;;4909485;29;20025;-63
2022/03/19 14:18:41;;;;;;;14.73;8.32;;;;;;;;;;4910373;29;20583;-62
2022/03/19 14:21:10;;;;;;;15.55;7.95;;;;;;;;;;4911390;29;20358;-62
2022/03/19 14:23:40;;;;;;;13.52;7.85;;;;;;;;;;4909992;29;20028;-62
2022/03/19 14:26:09;;;;;;;14.27;7.60;;;;;;;;;;4910150;29;20024;-63
2022/03/19 14:28:35;;;;;;;14.30;7.70;;;;;;;;;;4911575;29;20034;-62
2022/03/19 14:31:01;;;;;;;13.75;7.68;;;;;;;;;;4909933;29;20048;-62
2022/03/19 14:33:28;;;;;;;15.95;7.70;;;;;;;;;;4906825;29;20024;-63
2022/03/19 14:35:54;;;;;;;16.70;7.53;;;;;;;;;;4908325;29;20370;-63
2022/03/19 14:38:23;;;;;;;14.98;6.80;;;;;;;;;;4907659;29;20040;-62
2022/03/19 14:40:50;;;;;;;10.45;6.57;;;;;;;;;;4905999;29;20054;-63
2022/03/19 14:43:17;;;;;;;12.98;7.75;;;;;;;;;;4907525;29;20028;-62
2022/03/19 14:45:44;;;;;;;17.60;8.50;;;;;;;;;;4907613;29;20036;-62
2022/03/19 14:48:10;;;;;;;15.75;8.07;;;;;;;;;;4906398;29;20056;-62
2022/03/19 14:50:36;;;;;;;18.85;9.50;;;;;;;;;;4907343;29;20326;-63
2022/03/19 14:53:03;;;;;;;18.42;9.43;;;;;;;;;;4907654;29;20091;-63
2022/03/19 14:55:29;;;;;;;14.63;8.23;;;;;;;;;;4905821;29;20044;-62
2022/03/19 14:57:55;;;;;;;14.82;8.20;;;;;;;;;;4906214;29;20115;-62
2022/03/19 15:00:21;;;;;;;15.05;7.07;;;;;;;;;;4907242;29;20500;-62
2022/03/19 15:02:47;;;;;;;14.20;7.70;;;;;;;;;;4905891;29;20453;-62
2022/03/19 15:05:13;;;;;;;12.23;7.38;;;;;;;;;;4907712;29;20035;-62
2022/03/19 15:07:40;;;;;;;15.02;7.80;;;;;;;;;;4907482;29;20037;-63
2022/03/19 15:10:06;;;;;;;15.52;7.68;;;;;;;;;;4906254;29;20424;-63
2022/03/19 15:12:32;;;;;;;14.88;7.93;;;;;;;;;;4907558;29;20563;-62
2022/03/19 15:14:58;;;;;;;18.00;8.75;;;;;;;;;;4906628;29;20044;-63
2022/03/19 15:17:24;;;;;;;13.70;7.68;;;;;;;;;;4906613;29;20024;-62
2022/03/19 15:19:50;;;;;;;13.57;7.45;;;;;;;;;;4907408;29;20032;-63
2022/03/19 15:22:17;;;;;;;11.73;7.13;;;;;;;;;;4905824;29;20029;-62
2022/03/19 15:24:43;;;;;;;13.20;8.18;;;;;;;;;;4906445;29;20027;-62
2022/03/19 15:27:11;;;;;;;12.32;7.65;;;;;;;;;;4907154;29;20449;-62
2022/03/19 15:29:37;;;;;;;12.75;7.53;;;;;;;;;;4906001;29;20093;-62
2022/03/19 15:32:04;;;;;;;15.75;7.55;;;;;;;;;;4906479;29;20034;-63
2022/03/19 15:34:30;;;;;;;14.00;7.25;;;;;;;;;;4905863;29;20029;-62
2022/03/19 15:36:56;;;;;;;13.98;7.18;;;;;;;;;;4905117;29;20052;-62
2022/03/19 15:39:22;;;;;;;13.88;7.15;;;;;;;;;;4906194;29;20040;-62
2022/03/19 15:41:48;;;;;;;14.80;8.43;;;;;;;;;;4906390;29;20099;-63
2022/03/19 15:44:14;;;;;;;16.65;8.77;;;;;;;;;;4903916;29;20029;-62
2022/03/19 15:46:40;;;;;;;15.40;8.80;;;;;;;;;;4906602;29;20035;-63
2022/03/19 15:49:09;;;;;;;14.35;8.27;;;;;;;;;;4906219;29;20016;-62
2022/03/19 15:51:36;;;;;;;15.60;8.48;;;;;;;;;;4904834;29;20510;-63
2022/03/19 15:54:03;;;;;;;14.73;7.45;;;;;;;;;;4905885;29;20488;-62
2022/03/19 15:56:29;;;;;;;12.30;7.20;;;;;;;;;;4906222;29;20119;-63
2022/03/19 15:58:56;;;;;;;13.00;7.50;;;;;;;;;;4904705;29;20036;-63
2022/03/19 16:01:22;;;;;;;15.10;7.63;;;;;;;;;;4906358;29;20392;-62
2022/03/19 16:03:48;;;;;;;15.63;8.02;;;;;;;;;;4903527;29;20110;-62
2022/03/19 16:06:15;;;;;;;20.20;9.30;;;;;;;;;;4904560;29;20037;-63
2022/03/19 16:08:41;;;;;;;18.17;8.73;;;;;;;;;;4898729;29;20468;-63
2022/03/19 16:11:07;;;;;;;16.02;8.57;;;;;;;;;;4905360;29;20032;-63
2022/03/19 16:13:34;;;;;;;19.00;9.68;;;;;;;;;;4904444;29;20366;-62
2022/03/19 16:16:00;;;;;;;17.70;9.63;;;;;;;;;;4906246;29;20095;-63
2022/03/19 16:18:26;;;;;;;16.60;8.57;;;;;;;;;;4905438;29;20044;-63
2022/03/19 16:20:52;;;;;;;21.33;10.02;;;;;;;;;;4904389;29;20357;-62
2022/03/19 16:23:18;;;;;;;18.90;10.32;;;;;;;;;;4906091;29;20028;-62
2022/03/19 16:25:44;;;;;;;19.63;10.07;;;;;;;;;;4904817;29;20032;-63
2022/03/19 16:28:10;;;;;;;23.38;11.43;;;;;;;;;;4902763;29;20418;-62
2022/03/19 16:30:36;;;;;;;25.45;11.65;;;;;;;;;;4905868;29;20036;-62
2022/03/19 16:33:03;;;;;;;24.90;12.10;;;;;;;;;;4904968;29;20036;-62
2022/03/19 16:35:29;;;;;;;26.73;13.15;;;;;;;;;;4905184;29;20029;-62
2022/03/19 16:37:56;;;;;;;28.15;14.00;;;;;;;;;;4903737;29;20047;-62
2022/03/19 16:40:22;;;;;;;51.03;23.55;;;;;;;;;;4905635;29;20024;-62
2022/03/19 16:42:48;;;;;;;35.35;16.80;;;;;;;;;;4904787;29;20401;-62
2022/03/19 16:45:14;;;;;;;29.60;15.43;;;;;;;;;;4903533;29;20028;-62
2022/03/19 16:47:41;;;;;;;37.53;17.80;;;;;;;;;;4903921;29;20032;-62
2022/03/19 16:50:07;;;;;;;33.90;16.80;;;;;;;;;;4903126;29;20050;-61
2022/03/19 16:52:34;;;;;;;31.92;15.95;;;;;;;;;;4905072;29;20023;-61
2022/03/19 16:55:00;;;;;;;38.55;15.43;;;;;;;;;;4902947;29;20497;-62
2022/03/19 16:57:26;;;;;;;31.30;14.45;;;;;;;;;;4904637;29;20025;-62
2022/03/19 16:59:52;;;;;;;29.05;14.57;;;;;;;;;;4904646;29;20355;-62
2022/03/19 17:02:18;;;;;;;31.48;13.73;;;;;;;;;;4903351;29;20028;-61
2022/03/19 17:04:44;;;;;;;25.63;12.77;;;;;;;;;;4905225;29;20032;-62
2022/03/19 17:07:11;;;;;;;27.92;12.13;;;;;;;;;;4904666;29;20024;-63
2022/03/19 17:09:37;;;;;;;22.88;10.85;;;;;;;;;;4903313;29;20032;-63
2022/03/19 17:12:03;;;;;;;25.77;11.50;;;;;;;;;;4905219;29;20031;-63
2022/03/19 17:14:29;;;;;;;27.58;12.82;;;;;;;;;;4903257;29;20036;-62
2022/03/19 17:16:55;;;;;;;28.98;12.82;;;;;;;;;;4904775;29;20047;-63
2022/03/19 17:19:21;;;;;;;29.77;14.40;;;;;;;;;;4904928;29;20100;-62
2022/03/19 17:21:48;;;;;;;33.05;14.60;;;;;;;;;;4901837;29;20409;-63
2022/03/19 17:24:14;;;;;;;31.23;13.82;;;;;;;;;;4904962;29;20024;-63
2022/03/19 17:26:40;;;;;;;31.08;13.82;;;;;;;;;;4902492;29;20458;-63
2022/03/19 17:29:06;;;;;;;29.88;14.10;;;;;;;;;;4903293;29;20039;-63
2022/03/19 17:31:32;;;;;;;33.40;15.10;;;;;;;;;;4904904;29;20016;-62
2022/03/19 17:33:58;;;;;;;34.53;14.55;;;;;;;;;;4904002;29;20489;-62
2022/03/19 17:36:24;;;;;;;32.55;15.48;;;;;;;;;;4902941;29;20549;-63
2022/03/19 17:38:50;;;;;;;34.15;15.32;;;;;;;;;;4904861;29;20036;-61
2022/03/19 17:41:17;;;;;;;35.20;16.08;;;;;;;;;;4903320;29;20353;-66
2022/03/19 17:43:44;;;;;;;33.13;15.57;;;;;;;;;;4902897;29;20043;-61
2022/03/19 17:46:11;;;;;;;35.78;15.48;;;;;;;;;;4904373;29;20038;-62
2022/03/19 17:48:38;;;;;;;41.38;17.33;;;;;;;;;;4903687;29;20212;-61
2022/03/19 17:51:04;;;;;;;34.53;16.20;;;;;;;;;;4901150;29;20025;-61
2022/03/19 17:53:30;;;;;;;32.63;14.95;;;;;;;;;;4899167;29;20031;-61
2022/03/19 17:55:56;;;;;;;34.97;15.70;;;;;;;;;;4901093;29;20398;-61
2022/03/19 17:58:22;;;;;;;36.58;17.58;;;;;;;;;;4902831;29;20037;-62
2022/03/19 18:00:49;;;;;;;40.83;16.95;;;;;;;;;;4906753;29;20088;-61
2022/03/19 18:03:15;;;;;;;38.33;17.42;;;;;;;;;;4913695;29;20036;-61
2022/03/19 18:05:41;;;;;;;41.38;18.75;;;;;;;;;;4913562;29;20436;-60
2022/03/19 18:08:07;;;;;;;42.08;18.10;;;;;;;;;;4916230;29;20064;-62
2022/03/19 18:10:34;;;;;;;38.85;17.73;;;;;;;;;;4917308;29;20694;-61
2022/03/19 18:13:00;;;;;;;41.25;17.55;;;;;;;;;;4917213;29;20084;-62
2022/03/19 18:15:26;;;;;;;38.30;17.25;;;;;;;;;;4917105;29;20083;-62
2022/03/19 18:17:54;;;;;;;40.60;17.90;;;;;;;;;;4916579;29;20460;-62
2022/03/19 18:20:20;;;;;;;32.70;15.70;;;;;;;;;;4913422;29;20048;-60
2022/03/19 18:22:50;;;;;;;33.85;13.75;;;;;;;;;;4905857;29;20083;-60
2022/03/19 18:25:16;;;;;;;33.10;14.88;;;;;;;;;;4904481;29;20396;-60
2022/03/19 18:27:43;;;;;;;27.65;13.60;;;;;;;;;;4903537;29;20036;-61
2022/03/19 18:30:10;;;;;;;31.80;14.57;;;;;;;;;;4906774;29;20036;-60
2022/03/19 18:32:38;;;;;;;25.67;13.45;;;;;;;;;;4906365;29;20536;-61
2022/03/19 18:35:04;;;;;;;33.25;13.85;;;;;;;;;;4906077;29;20504;-61
2022/03/19 18:37:30;;;;;;;31.05;14.20;;;;;;;;;;4908684;29;20032;-60
2022/03/19 18:39:57;;;;;;;29.85;14.88;;;;;;;;;;4905743;29;20671;-61
2022/03/19 18:42:25;;;;;;;33.97;15.48;;;;;;;;;;4907503;29;20111;-60
2022/03/19 18:44:51;;;;;;;33.05;14.65;;;;;;;;;;4904975;29;20032;-59
2022/03/19 18:47:17;;;;;;;31.45;14.88;;;;;;;;;;4906128;29;20035;-61
2022/03/19 18:49:51;;;;;;;26.48;13.25;;;;;;;;;;4906075;29;20032;-60
2022/03/19 18:52:17;;;;;;;24.27;12.07;;;;;;;;;;4906062;29;20095;-61
2022/03/19 18:54:43;;;;;;;26.83;12.07;;;;;;;;;;4903948;29;20081;-60
2022/03/19 18:57:10;;;;;;;26.90;13.18;;;;;;;;;;4903020;29;20326;-61
2022/03/19 18:59:38;;;;;;;25.77;12.35;;;;;;;;;;4905797;29;20438;-60
2022/03/19 19:02:05;;;;;;;27.88;11.52;;;;;;;;;;4903860;29;20069;-61
2022/03/19 19:04:31;;;;;;;19.50;9.95;;;;;;;;;;4906031;29;20489;-61
2022/03/19 19:06:57;;;;;;;21.73;10.70;;;;;;;;;;4911178;29;20031;-60
2022/03/19 19:09:23;;;;;;;21.10;10.60;;;;;;;;;;4907310;29;20035;-61
2022/03/19 19:11:49;;;;;;;22.30;11.00;;;;;;;;;;4905850;29;20502;-60
2022/03/19 19:14:15;;;;;;;20.13;10.05;;;;;;;;;;4898742;29;20024;-60
2022/03/19 19:16:41;;;;;;;24.73;10.20;;;;;;;;;;4897193;29;20073;-60
2022/03/19 19:19:07;;;;;;;17.88;10.20;;;;;;;;;;4896560;29;20041;-59
2022/03/19 19:21:35;;;;;;;19.48;9.77;;;;;;;;;;4897039;29;20033;-59
2022/03/19 19:24:01;;;;;;;18.70;10.27;;;;;;;;;;4897147;29;20031;-59
2022/03/19 19:26:28;;;;;;;21.13;10.85;;;;;;;;;;4896851;29;20179;-59
2022/03/19 19:28:56;;;;;;;26.40;11.98;;;;;;;;;;4897322;29;20040;-60
2022/03/19 19:31:22;;;;;;;27.15;13.00;;;;;;;;;;4897105;29;20029;-60
2022/03/19 19:33:49;;;;;;;23.83;12.35;;;;;;;;;;4896918;29;20047;-60
2022/03/19 19:36:15;;;;;;;26.52;13.10;;;;;;;;;;4896878;29;20076;-60
2022/03/19 19:38:41;;;;;;;25.80;13.48;;;;;;;;;;4896721;29;20503;-59
2022/03/19 19:41:07;;;;;;;26.90;13.15;;;;;;;;;;4897136;29;20029;-60
2022/03/19 19:43:34;;;;;;;28.20;13.50;;;;;;;;;;4895512;29;20071;-59
2022/03/19 19:46:00;;;;;;;28.63;14.00;;;;;;;;;;4896962;29;20040;-59
2022/03/19 19:48:26;;;;;;;27.05;13.57;;;;;;;;;;4895755;29;20493;-59
2022/03/19 19:50:52;;;;;;;25.50;12.50;;;;;;;;;;4896983;29;20032;-62
2022/03/19 19:53:19;;;;;;;24.33;12.55;;;;;;;;;;4896839;29;20045;-61
2022/03/19 19:55:45;;;;;;;28.05;11.90;;;;;;;;;;4896613;29;20052;-61
2022/03/19 19:58:13;;;;;;;21.15;10.93;;;;;;;;;;4896501;29;20040;-61
2022/03/19 20:00:39;;;;;;;20.70;10.07;;;;;;;;;;4896750;29;20048;-61
2022/03/19 20:03:12;;;;;;;19.95;10.65;;;;;;;;;;4896712;29;20445;-60
2022/03/19 20:05:38;;;;;;;20.77;10.40;;;;;;;;;;4896607;29;20084;-61
2022/03/19 20:08:04;;;;;;;19.85;9.70;;;;;;;;;;4903977;29;20036;-60
2022/03/19 20:10:30;;;;;;;19.70;10.55;;;;;;;;;;4915234;29;20103;-61
2022/03/19 20:12:57;;;;;;;21.35;10.82;;;;;;;;;;4914638;29;20031;-61
2022/03/19 20:15:25;;;;;;;22.13;10.10;;;;;;;;;;4915083;29;20492;-61
2022/03/19 20:17:51;;;;;;;22.00;10.60;;;;;;;;;;4914950;29;20807;-61
2022/03/19 20:20:18;;;;;;;22.48;10.80;;;;;;;;;;4914917;29;20115;-61
2022/03/19 20:22:45;;;;;;;21.88;10.50;;;;;;;;;;4913174;29;20055;-60
2022/03/19 20:25:12;;;;;;;24.55;10.98;;;;;;;;;;4914848;29;20389;-60
2022/03/19 20:27:41;;;;;;;23.45;11.32;;;;;;;;;;4905334;29;20173;-61
2022/03/19 20:30:08;;;;;;;20.83;10.80;;;;;;;;;;4910192;29;20431;-60
2022/03/19 20:32:37;;;;;;;23.67;11.45;;;;;;;;;;4908434;29;20481;-60
2022/03/19 20:35:04;;;;;;;22.95;11.07;;;;;;;;;;4895954;29;20477;-59
2022/03/19 20:37:30;;;;;;;21.65;11.18;;;;;;;;;;4903794;29;20025;-61
2022/03/19 20:39:56;;;;;;;21.63;11.23;;;;;;;;;;4898653;29;20544;-60
2022/03/19 20:42:22;;;;;;;19.92;10.00;;;;;;;;;;4899705;29;20024;-60
2022/03/19 20:44:48;;;;;;;20.13;10.10;;;;;;;;;;4900009;29;20058;-60
2022/03/19 20:47:14;;;;;;;18.17;10.20;;;;;;;;;;4903324;29;20021;-59
2022/03/19 20:52:25;;;;;;;20.75;9.55;;;;;;;;;;4904844;29;20088;-62
2022/03/19 20:54:53;;;;;;;19.25;10.40;;;;;;;;;;4902910;29;20052;-60
2022/03/19 20:57:19;;;;;;;18.30;9.88;;;;;;;;;;4904158;29;20032;-61
2022/03/19 20:59:45;;;;;;;23.13;10.10;;;;;;;;;;4904230;29;20041;-60
2022/03/19 21:02:11;;;;;;;20.52;10.20;;;;;;;;;;4905613;29;20116;-60
2022/03/19 21:04:37;;;;;;;18.75;10.52;;;;;;;;;;4903834;29;20048;-60
2022/03/19 21:07:03;;;;;;;22.30;10.68;;;;;;;;;;4898518;29;20024;-61
2022/03/19 21:09:29;;;;;;;19.60;10.43;;;;;;;;;;4901766;29;20024;-60
2022/03/19 21:11:55;;;;;;;22.98;11.20;;;;;;;;;;4895287;29;20464;-61
2022/03/19 21:14:22;;;;;;;22.77;11.10;;;;;;;;;;4895268;29;20050;-60
2022/03/19 21:16:51;;;;;;;18.08;11.07;;;;;;;;;;4898917;29;20084;-60
2022/03/19 21:19:17;;;;;;;17.80;10.40;;;;;;;;;;4901036;29;20044;-60
2022/03/19 21:21:44;;;;;;;18.15;10.38;;;;;;;;;;4903203;29;20033;-61
2022/03/19 21:24:10;;;;;;;19.08;10.38;;;;;;;;;;4904685;29;20034;-60